sensor_id;sensor_type;location;lat;lon;timestamp;P1;durP1;ratioP1;P2;durP2;ratioP2
9852;SDS011;4965;43.238;27.864;2022-11-15T00:01:16;15.60;;;11.18;;
9852;SDS011;4965;43.238;27.864;2022-11-15T00:03:44;13.27;;;10.40;;
9852;SDS011;4965;43.238;27.864;2022-11-15T00:06:12;13.52;;;9.70;;
9852;SDS011;4965;43.238;27.864;2022-11-15T00:08:39;12.25;;;10.25;;
9852;SDS011;4965;43.238;27.864;2022-11-15T00:11:06;12.55;;;10.10;;
9852;SDS011;4965;43.238;27.864;2022-11-15T00:13:36;13.52;;;9.40;;
9852;SDS011;4965;43.238;27.864;2022-11-15T00:16:03;13.05;;;10.90;;
9852;SDS011;4965;43.238;27.864;2022-11-15T00:18:32;14.40;;;10.55;;
9852;SDS011;4965;43.238;27.864;2022-11-15T00:21:03;12.85;;;9.65;;
9852;SDS011;4965;43.238;27.864;2022-11-15T00:23:32;10.88;;;9.07;;
9852;SDS011;4965;43.238;27.864;2022-11-15T00:25:59;12.80;;;9.18;;
9852;SDS011;4965;43.238;27.864;2022-11-15T00:28:26;10.48;;;8.80;;
9852;SDS011;4965;43.238;27.864;2022-11-15T00:30:53;10.73;;;8.45;;
9852;SDS011;4965;43.238;27.864;2022-11-15T00:33:20;9.80;;;8.07;;
9852;SDS011;4965;43.238;27.864;2022-11-15T00:35:48;9.88;;;8.13;;
9852;SDS011;4965;43.238;27.864;2022-11-15T00:38:15;11.77;;;8.73;;
9852;SDS011;4965;43.238;27.864;2022-11-15T00:40:42;8.60;;;7.22;;
9852;SDS011;4965;43.238;27.864;2022-11-15T00:43:09;8.85;;;7.70;;
9852;SDS011;4965;43.238;27.864;2022-11-15T00:45:35;12.05;;;8.98;;
9852;SDS011;4965;43.238;27.864;2022-11-15T00:48:03;9.43;;;7.82;;
9852;SDS011;4965;43.238;27.864;2022-11-15T00:50:30;9.95;;;7.97;;
9852;SDS011;4965;43.238;27.864;2022-11-15T00:52:59;10.40;;;7.80;;
9852;SDS011;4965;43.238;27.864;2022-11-15T00:55:25;8.70;;;7.47;;
9852;SDS011;4965;43.238;27.864;2022-11-15T00:57:52;10.90;;;8.40;;
9852;SDS011;4965;43.238;27.864;2022-11-15T01:00:20;10.35;;;8.68;;
9852;SDS011;4965;43.238;27.864;2022-11-15T01:02:47;11.95;;;8.63;;
9852;SDS011;4965;43.238;27.864;2022-11-15T01:05:14;11.82;;;8.70;;
9852;SDS011;4965;43.238;27.864;2022-11-15T01:07:40;10.05;;;8.23;;
9852;SDS011;4965;43.238;27.864;2022-11-15T01:10:09;8.50;;;7.22;;
9852;SDS011;4965;43.238;27.864;2022-11-15T01:12:36;9.15;;;7.35;;
9852;SDS011;4965;43.238;27.864;2022-11-15T01:15:03;9.27;;;7.57;;
9852;SDS011;4965;43.238;27.864;2022-11-15T01:17:31;8.30;;;7.30;;
9852;SDS011;4965;43.238;27.864;2022-11-15T01:19:58;9.38;;;7.50;;
9852;SDS011;4965;43.238;27.864;2022-11-15T01:22:25;8.20;;;7.07;;
9852;SDS011;4965;43.238;27.864;2022-11-15T01:24:51;8.93;;;7.82;;
9852;SDS011;4965;43.238;27.864;2022-11-15T01:27:20;9.43;;;8.27;;
9852;SDS011;4965;43.238;27.864;2022-11-15T01:29:47;9.15;;;7.72;;
9852;SDS011;4965;43.238;27.864;2022-11-15T01:32:14;9.20;;;8.18;;
9852;SDS011;4965;43.238;27.864;2022-11-15T01:34:42;8.60;;;7.70;;
9852;SDS011;4965;43.238;27.864;2022-11-15T01:37:09;8.82;;;7.93;;
9852;SDS011;4965;43.238;27.864;2022-11-15T01:39:35;8.77;;;7.88;;
9852;SDS011;4965;43.238;27.864;2022-11-15T01:42:03;8.52;;;7.60;;
9852;SDS011;4965;43.238;27.864;2022-11-15T01:44:42;8.38;;;7.55;;
9852;SDS011;4965;43.238;27.864;2022-11-15T01:47:13;8.40;;;7.35;;
9852;SDS011;4965;43.238;27.864;2022-11-15T01:49:45;9.27;;;7.90;;
9852;SDS011;4965;43.238;27.864;2022-11-15T01:52:17;8.40;;;7.57;;
9852;SDS011;4965;43.238;27.864;2022-11-15T01:54:47;8.68;;;7.72;;
9852;SDS011;4965;43.238;27.864;2022-11-15T01:57:16;8.95;;;7.78;;
9852;SDS011;4965;43.238;27.864;2022-11-15T01:59:45;7.95;;;6.55;;
9852;SDS011;4965;43.238;27.864;2022-11-15T02:02:13;9.27;;;7.88;;
9852;SDS011;4965;43.238;27.864;2022-11-15T02:04:41;8.32;;;7.15;;
9852;SDS011;4965;43.238;27.864;2022-11-15T02:07:09;8.13;;;7.32;;
9852;SDS011;4965;43.238;27.864;2022-11-15T02:09:39;7.88;;;6.68;;
9852;SDS011;4965;43.238;27.864;2022-11-15T02:12:06;7.50;;;6.70;;
9852;SDS011;4965;43.238;27.864;2022-11-15T02:14:36;9.45;;;7.28;;
9852;SDS011;4965;43.238;27.864;2022-11-15T02:17:12;8.70;;;7.35;;
9852;SDS011;4965;43.238;27.864;2022-11-15T02:23:27;8.90;;;7.25;;
9852;SDS011;4965;43.238;27.864;2022-11-15T02:26:24;7.55;;;6.68;;
9852;SDS011;4965;43.238;27.864;2022-11-15T02:29:11;9.05;;;7.40;;
9852;SDS011;4965;43.238;27.864;2022-11-15T02:31:48;9.50;;;8.00;;
9852;SDS011;4965;43.238;27.864;2022-11-15T02:34:20;10.00;;;7.88;;
9852;SDS011;4965;43.238;27.864;2022-11-15T02:36:56;10.00;;;7.57;;
9852;SDS011;4965;43.238;27.864;2022-11-15T02:39:34;9.30;;;8.10;;
9852;SDS011;4965;43.238;27.864;2022-11-15T02:42:09;8.43;;;7.38;;
9852;SDS011;4965;43.238;27.864;2022-11-15T02:44:55;8.85;;;7.72;;
9852;SDS011;4965;43.238;27.864;2022-11-15T02:47:26;8.40;;;7.30;;
9852;SDS011;4965;43.238;27.864;2022-11-15T02:49:58;8.55;;;7.22;;
9852;SDS011;4965;43.238;27.864;2022-11-15T02:52:28;8.65;;;7.55;;
9852;SDS011;4965;43.238;27.864;2022-11-15T02:54:55;7.78;;;6.95;;
9852;SDS011;4965;43.238;27.864;2022-11-15T02:57:26;8.32;;;7.28;;
9852;SDS011;4965;43.238;27.864;2022-11-15T03:00:07;9.05;;;7.05;;
9852;SDS011;4965;43.238;27.864;2022-11-15T03:05:49;7.80;;;6.38;;
9852;SDS011;4965;43.238;27.864;2022-11-15T03:08:26;7.57;;;6.38;;
9852;SDS011;4965;43.238;27.864;2022-11-15T03:11:02;8.05;;;7.15;;
9852;SDS011;4965;43.238;27.864;2022-11-15T03:13:35;8.00;;;6.88;;
9852;SDS011;4965;43.238;27.864;2022-11-15T03:16:06;7.63;;;6.90;;
9852;SDS011;4965;43.238;27.864;2022-11-15T03:18:43;8.13;;;6.78;;
9852;SDS011;4965;43.238;27.864;2022-11-15T03:21:14;9.40;;;6.97;;
9852;SDS011;4965;43.238;27.864;2022-11-15T03:23:43;10.05;;;7.32;;
9852;SDS011;4965;43.238;27.864;2022-11-15T03:26:13;9.32;;;8.10;;
9852;SDS011;4965;43.238;27.864;2022-11-15T03:28:43;10.18;;;7.40;;
9852;SDS011;4965;43.238;27.864;2022-11-15T03:31:15;8.90;;;7.60;;
9852;SDS011;4965;43.238;27.864;2022-11-15T03:34:04;10.82;;;8.80;;
9852;SDS011;4965;43.238;27.864;2022-11-15T03:36:36;8.70;;;7.15;;
9852;SDS011;4965;43.238;27.864;2022-11-15T03:39:05;8.73;;;7.15;;
9852;SDS011;4965;43.238;27.864;2022-11-15T03:41:35;9.80;;;7.90;;
9852;SDS011;4965;43.238;27.864;2022-11-15T03:44:08;9.65;;;8.48;;
9852;SDS011;4965;43.238;27.864;2022-11-15T03:46:43;8.32;;;7.43;;
9852;SDS011;4965;43.238;27.864;2022-11-15T03:49:17;10.65;;;8.65;;
9852;SDS011;4965;43.238;27.864;2022-11-15T03:51:51;10.48;;;8.38;;
9852;SDS011;4965;43.238;27.864;2022-11-15T03:54:18;9.63;;;8.00;;
9852;SDS011;4965;43.238;27.864;2022-11-15T03:56:45;10.00;;;7.65;;
9852;SDS011;4965;43.238;27.864;2022-11-15T03:59:11;10.85;;;9.43;;
9852;SDS011;4965;43.238;27.864;2022-11-15T04:01:39;10.63;;;8.98;;
9852;SDS011;4965;43.238;27.864;2022-11-15T04:04:06;9.13;;;7.88;;
9852;SDS011;4965;43.238;27.864;2022-11-15T04:06:34;11.43;;;9.43;;
9852;SDS011;4965;43.238;27.864;2022-11-15T04:09:01;12.80;;;8.63;;
9852;SDS011;4965;43.238;27.864;2022-11-15T04:11:28;10.93;;;8.93;;
9852;SDS011;4965;43.238;27.864;2022-11-15T04:13:55;9.18;;;7.95;;
9852;SDS011;4965;43.238;27.864;2022-11-15T04:16:22;9.38;;;7.97;;
9852;SDS011;4965;43.238;27.864;2022-11-15T04:18:49;8.90;;;7.60;;
9852;SDS011;4965;43.238;27.864;2022-11-15T04:21:37;8.60;;;7.68;;
9852;SDS011;4965;43.238;27.864;2022-11-15T04:24:21;10.98;;;7.68;;
9852;SDS011;4965;43.238;27.864;2022-11-15T04:26:48;9.95;;;8.10;;
9852;SDS011;4965;43.238;27.864;2022-11-15T04:29:15;9.18;;;7.78;;
9852;SDS011;4965;43.238;27.864;2022-11-15T04:32:00;9.27;;;6.93;;
9852;SDS011;4965;43.238;27.864;2022-11-15T04:34:27;9.90;;;8.23;;
9852;SDS011;4965;43.238;27.864;2022-11-15T04:36:56;10.13;;;7.90;;
9852;SDS011;4965;43.238;27.864;2022-11-15T04:39:37;10.75;;;8.43;;
9852;SDS011;4965;43.238;27.864;2022-11-15T04:42:04;10.25;;;8.68;;
9852;SDS011;4965;43.238;27.864;2022-11-15T04:44:31;10.35;;;8.52;;
9852;SDS011;4965;43.238;27.864;2022-11-15T04:46:58;10.15;;;8.65;;
9852;SDS011;4965;43.238;27.864;2022-11-15T04:49:25;12.00;;;8.80;;
9852;SDS011;4965;43.238;27.864;2022-11-15T04:51:52;9.93;;;8.73;;
9852;SDS011;4965;43.238;27.864;2022-11-15T04:54:20;11.65;;;7.97;;
9852;SDS011;4965;43.238;27.864;2022-11-15T04:56:47;10.32;;;8.38;;
9852;SDS011;4965;43.238;27.864;2022-11-15T04:59:14;10.85;;;8.77;;
9852;SDS011;4965;43.238;27.864;2022-11-15T05:01:43;8.35;;;7.45;;
9852;SDS011;4965;43.238;27.864;2022-11-15T05:04:10;10.63;;;8.82;;
9852;SDS011;4965;43.238;27.864;2022-11-15T05:06:46;10.43;;;8.20;;
9852;SDS011;4965;43.238;27.864;2022-11-15T05:09:14;9.95;;;8.32;;
9852;SDS011;4965;43.238;27.864;2022-11-15T05:11:42;10.63;;;8.45;;
9852;SDS011;4965;43.238;27.864;2022-11-15T05:14:09;10.60;;;8.60;;
9852;SDS011;4965;43.238;27.864;2022-11-15T05:16:36;9.00;;;7.85;;
9852;SDS011;4965;43.238;27.864;2022-11-15T05:19:04;11.32;;;9.02;;
9852;SDS011;4965;43.238;27.864;2022-11-15T05:21:31;10.00;;;8.57;;
9852;SDS011;4965;43.238;27.864;2022-11-15T05:23:59;10.93;;;8.40;;
9852;SDS011;4965;43.238;27.864;2022-11-15T05:26:26;10.38;;;8.82;;
9852;SDS011;4965;43.238;27.864;2022-11-15T05:28:55;10.50;;;8.82;;
9852;SDS011;4965;43.238;27.864;2022-11-15T05:31:23;11.07;;;8.43;;
9852;SDS011;4965;43.238;27.864;2022-11-15T05:33:51;11.98;;;9.45;;
9852;SDS011;4965;43.238;27.864;2022-11-15T05:36:20;15.23;;;11.45;;
9852;SDS011;4965;43.238;27.864;2022-11-15T05:38:52;11.65;;;8.57;;
9852;SDS011;4965;43.238;27.864;2022-11-15T05:41:20;10.52;;;8.25;;
9852;SDS011;4965;43.238;27.864;2022-11-15T05:43:53;11.18;;;8.32;;
9852;SDS011;4965;43.238;27.864;2022-11-15T05:46:22;11.23;;;8.60;;
9852;SDS011;4965;43.238;27.864;2022-11-15T05:48:49;10.98;;;9.20;;
9852;SDS011;4965;43.238;27.864;2022-11-15T05:51:19;10.02;;;8.68;;
9852;SDS011;4965;43.238;27.864;2022-11-15T05:53:50;12.40;;;7.97;;
9852;SDS011;4965;43.238;27.864;2022-11-15T05:56:19;13.82;;;9.40;;
9852;SDS011;4965;43.238;27.864;2022-11-15T05:58:46;11.48;;;8.70;;
9852;SDS011;4965;43.238;27.864;2022-11-15T06:01:15;12.23;;;9.70;;
9852;SDS011;4965;43.238;27.864;2022-11-15T06:03:42;14.32;;;8.43;;
9852;SDS011;4965;43.238;27.864;2022-11-15T06:06:09;11.43;;;8.50;;
9852;SDS011;4965;43.238;27.864;2022-11-15T06:08:36;12.27;;;8.05;;
9852;SDS011;4965;43.238;27.864;2022-11-15T06:11:04;10.85;;;8.57;;
9852;SDS011;4965;43.238;27.864;2022-11-15T06:13:32;11.25;;;8.60;;
9852;SDS011;4965;43.238;27.864;2022-11-15T06:15:59;11.00;;;8.50;;
9852;SDS011;4965;43.238;27.864;2022-11-15T06:18:28;13.30;;;8.57;;
9852;SDS011;4965;43.238;27.864;2022-11-15T06:20:58;9.45;;;7.72;;
9852;SDS011;4965;43.238;27.864;2022-11-15T06:23:26;12.32;;;8.30;;
9852;SDS011;4965;43.238;27.864;2022-11-15T06:25:57;11.15;;;8.20;;
9852;SDS011;4965;43.238;27.864;2022-11-15T06:28:24;8.25;;;6.95;;
9852;SDS011;4965;43.238;27.864;2022-11-15T06:30:54;9.82;;;8.73;;
9852;SDS011;4965;43.238;27.864;2022-11-15T06:33:20;9.68;;;7.70;;
9852;SDS011;4965;43.238;27.864;2022-11-15T06:35:49;8.00;;;7.03;;
9852;SDS011;4965;43.238;27.864;2022-11-15T06:38:16;8.30;;;6.43;;
9852;SDS011;4965;43.238;27.864;2022-11-15T06:40:43;10.25;;;6.72;;
9852;SDS011;4965;43.238;27.864;2022-11-15T06:43:10;9.75;;;8.00;;
9852;SDS011;4965;43.238;27.864;2022-11-15T06:45:37;8.73;;;7.07;;
9852;SDS011;4965;43.238;27.864;2022-11-15T06:48:04;8.95;;;6.82;;
9852;SDS011;4965;43.238;27.864;2022-11-15T06:50:32;10.20;;;7.65;;
9852;SDS011;4965;43.238;27.864;2022-11-15T06:53:02;9.75;;;7.63;;
9852;SDS011;4965;43.238;27.864;2022-11-15T06:55:30;9.05;;;7.55;;
9852;SDS011;4965;43.238;27.864;2022-11-15T06:57:57;8.50;;;7.60;;
9852;SDS011;4965;43.238;27.864;2022-11-15T07:00:24;8.30;;;7.40;;
9852;SDS011;4965;43.238;27.864;2022-11-15T07:02:51;10.10;;;6.88;;
9852;SDS011;4965;43.238;27.864;2022-11-15T07:05:18;10.07;;;6.72;;
9852;SDS011;4965;43.238;27.864;2022-11-15T07:07:50;12.88;;;9.63;;
9852;SDS011;4965;43.238;27.864;2022-11-15T07:10:20;12.20;;;9.40;;
9852;SDS011;4965;43.238;27.864;2022-11-15T07:12:47;11.80;;;8.88;;
9852;SDS011;4965;43.238;27.864;2022-11-15T07:15:14;13.88;;;10.32;;
9852;SDS011;4965;43.238;27.864;2022-11-15T07:17:41;13.02;;;9.63;;
9852;SDS011;4965;43.238;27.864;2022-11-15T07:20:08;15.57;;;10.93;;
9852;SDS011;4965;43.238;27.864;2022-11-15T07:22:35;11.45;;;9.75;;
9852;SDS011;4965;43.238;27.864;2022-11-15T07:25:02;12.18;;;9.15;;
9852;SDS011;4965;43.238;27.864;2022-11-15T07:27:32;12.90;;;8.00;;
9852;SDS011;4965;43.238;27.864;2022-11-15T07:29:59;12.13;;;7.97;;
9852;SDS011;4965;43.238;27.864;2022-11-15T07:32:26;11.88;;;8.85;;
9852;SDS011;4965;43.238;27.864;2022-11-15T07:34:53;9.27;;;8.25;;
9852;SDS011;4965;43.238;27.864;2022-11-15T07:37:20;11.77;;;7.10;;
9852;SDS011;4965;43.238;27.864;2022-11-15T07:39:48;13.30;;;7.75;;
9852;SDS011;4965;43.238;27.864;2022-11-15T07:42:14;9.60;;;7.70;;
9852;SDS011;4965;43.238;27.864;2022-11-15T07:45:00;7.93;;;6.70;;
9852;SDS011;4965;43.238;27.864;2022-11-15T07:47:28;8.00;;;6.85;;
9852;SDS011;4965;43.238;27.864;2022-11-15T07:49:55;8.52;;;6.82;;
9852;SDS011;4965;43.238;27.864;2022-11-15T07:52:22;8.18;;;6.88;;
9852;SDS011;4965;43.238;27.864;2022-11-15T07:54:49;8.75;;;6.80;;
9852;SDS011;4965;43.238;27.864;2022-11-15T07:57:16;13.43;;;7.85;;
9852;SDS011;4965;43.238;27.864;2022-11-15T07:59:43;11.65;;;6.82;;
9852;SDS011;4965;43.238;27.864;2022-11-15T08:02:12;10.32;;;7.38;;
9852;SDS011;4965;43.238;27.864;2022-11-15T08:04:38;12.00;;;7.18;;
9852;SDS011;4965;43.238;27.864;2022-11-15T08:07:06;11.20;;;9.52;;
9852;SDS011;4965;43.238;27.864;2022-11-15T08:09:33;14.43;;;9.60;;
9852;SDS011;4965;43.238;27.864;2022-11-15T08:12:00;9.10;;;7.05;;
9852;SDS011;4965;43.238;27.864;2022-11-15T08:14:27;13.00;;;7.40;;
9852;SDS011;4965;43.238;27.864;2022-11-15T08:16:54;8.18;;;6.72;;
9852;SDS011;4965;43.238;27.864;2022-11-15T08:19:23;9.20;;;8.10;;
9852;SDS011;4965;43.238;27.864;2022-11-15T08:21:50;14.10;;;7.47;;
9852;SDS011;4965;43.238;27.864;2022-11-15T08:24:16;9.52;;;7.40;;
9852;SDS011;4965;43.238;27.864;2022-11-15T08:26:43;11.60;;;7.32;;
9852;SDS011;4965;43.238;27.864;2022-11-15T08:29:10;9.10;;;8.07;;
9852;SDS011;4965;43.238;27.864;2022-11-15T08:31:37;11.18;;;8.43;;
9852;SDS011;4965;43.238;27.864;2022-11-15T08:34:04;9.32;;;7.88;;
9852;SDS011;4965;43.238;27.864;2022-11-15T08:36:33;12.50;;;7.45;;
9852;SDS011;4965;43.238;27.864;2022-11-15T08:39:00;15.65;;;8.73;;
9852;SDS011;4965;43.238;27.864;2022-11-15T08:41:31;11.00;;;7.82;;
9852;SDS011;4965;43.238;27.864;2022-11-15T08:44:00;9.80;;;7.20;;
9852;SDS011;4965;43.238;27.864;2022-11-15T08:46:27;12.07;;;7.25;;
9852;SDS011;4965;43.238;27.864;2022-11-15T08:48:54;10.25;;;7.93;;
9852;SDS011;4965;43.238;27.864;2022-11-15T08:51:22;12.88;;;6.20;;
9852;SDS011;4965;43.238;27.864;2022-11-15T08:53:50;8.38;;;6.63;;
9852;SDS011;4965;43.238;27.864;2022-11-15T08:56:17;7.60;;;6.57;;
9852;SDS011;4965;43.238;27.864;2022-11-15T08:58:44;10.35;;;6.75;;
9852;SDS011;4965;43.238;27.864;2022-11-15T09:01:15;7.60;;;5.95;;
9852;SDS011;4965;43.238;27.864;2022-11-15T09:03:43;7.82;;;6.30;;
9852;SDS011;4965;43.238;27.864;2022-11-15T09:06:10;8.85;;;6.65;;
9852;SDS011;4965;43.238;27.864;2022-11-15T09:08:39;11.88;;;6.63;;
9852;SDS011;4965;43.238;27.864;2022-11-15T09:11:08;13.23;;;7.40;;
9852;SDS011;4965;43.238;27.864;2022-11-15T09:13:36;8.95;;;7.05;;
9852;SDS011;4965;43.238;27.864;2022-11-15T09:16:03;8.05;;;6.15;;
9852;SDS011;4965;43.238;27.864;2022-11-15T09:18:31;6.55;;;5.93;;
9852;SDS011;4965;43.238;27.864;2022-11-15T09:20:58;12.73;;;7.45;;
9852;SDS011;4965;43.238;27.864;2022-11-15T09:23:30;6.32;;;5.68;;
9852;SDS011;4965;43.238;27.864;2022-11-15T09:26:00;7.65;;;6.03;;
9852;SDS011;4965;43.238;27.864;2022-11-15T09:28:30;10.23;;;6.53;;
9852;SDS011;4965;43.238;27.864;2022-11-15T09:30:58;7.60;;;5.30;;
9852;SDS011;4965;43.238;27.864;2022-11-15T09:33:25;7.40;;;5.82;;
9852;SDS011;4965;43.238;27.864;2022-11-15T09:35:53;6.05;;;5.10;;
9852;SDS011;4965;43.238;27.864;2022-11-15T09:38:20;7.70;;;5.50;;
9852;SDS011;4965;43.238;27.864;2022-11-15T09:40:48;5.85;;;4.93;;
9852;SDS011;4965;43.238;27.864;2022-11-15T09:43:26;6.78;;;4.72;;
9852;SDS011;4965;43.238;27.864;2022-11-15T09:46:02;7.25;;;5.95;;
9852;SDS011;4965;43.238;27.864;2022-11-15T09:48:42;16.13;;;5.60;;
9852;SDS011;4965;43.238;27.864;2022-11-15T09:51:18;8.05;;;5.00;;
9852;SDS011;4965;43.238;27.864;2022-11-15T09:53:55;9.93;;;5.55;;
9852;SDS011;4965;43.238;27.864;2022-11-15T09:56:28;7.32;;;5.75;;
9852;SDS011;4965;43.238;27.864;2022-11-15T09:59:01;5.90;;;5.07;;
9852;SDS011;4965;43.238;27.864;2022-11-15T10:01:41;5.35;;;4.50;;
9852;SDS011;4965;43.238;27.864;2022-11-15T10:04:15;6.13;;;3.97;;
9852;SDS011;4965;43.238;27.864;2022-11-15T10:06:46;6.35;;;4.85;;
9852;SDS011;4965;43.238;27.864;2022-11-15T10:09:19;7.70;;;4.68;;
9852;SDS011;4965;43.238;27.864;2022-11-15T10:11:52;4.47;;;4.07;;
9852;SDS011;4965;43.238;27.864;2022-11-15T10:14:21;6.93;;;4.50;;
9852;SDS011;4965;43.238;27.864;2022-11-15T10:19:50;5.53;;;4.30;;
9852;SDS011;4965;43.238;27.864;2022-11-15T10:22:27;7.63;;;4.25;;
9852;SDS011;4965;43.238;27.864;2022-11-15T10:27:53;3.75;;;3.45;;
9852;SDS011;4965;43.238;27.864;2022-11-15T10:36:22;15.32;;;5.38;;
9852;SDS011;4965;43.238;27.864;2022-11-15T10:38:57;12.30;;;5.30;;
9852;SDS011;4965;43.238;27.864;2022-11-15T10:41:38;4.88;;;4.28;;
9852;SDS011;4965;43.238;27.864;2022-11-15T10:44:18;4.57;;;4.13;;
9852;SDS011;4965;43.238;27.864;2022-11-15T10:47:06;7.15;;;4.22;;
9852;SDS011;4965;43.238;27.864;2022-11-15T10:49:54;6.75;;;4.20;;
9852;SDS011;4965;43.238;27.864;2022-11-15T10:52:25;11.15;;;5.40;;
9852;SDS011;4965;43.238;27.864;2022-11-15T10:54:54;4.10;;;3.70;;
9852;SDS011;4965;43.238;27.864;2022-11-15T10:57:24;4.43;;;4.03;;
9852;SDS011;4965;43.238;27.864;2022-11-15T10:59:54;4.45;;;3.88;;
9852;SDS011;4965;43.238;27.864;2022-11-15T11:02:32;4.90;;;4.15;;
9852;SDS011;4965;43.238;27.864;2022-11-15T11:05:03;4.45;;;4.05;;
9852;SDS011;4965;43.238;27.864;2022-11-15T11:07:34;4.28;;;3.88;;
9852;SDS011;4965;43.238;27.864;2022-11-15T11:10:03;4.40;;;3.72;;
9852;SDS011;4965;43.238;27.864;2022-11-15T11:12:43;5.43;;;3.95;;
9852;SDS011;4965;43.238;27.864;2022-11-15T11:15:13;7.30;;;4.53;;
9852;SDS011;4965;43.238;27.864;2022-11-15T11:17:46;7.88;;;5.03;;
9852;SDS011;4965;43.238;27.864;2022-11-15T11:20:20;9.27;;;5.00;;
9852;SDS011;4965;43.238;27.864;2022-11-15T11:23:00;6.45;;;4.15;;
9852;SDS011;4965;43.238;27.864;2022-11-15T11:25:46;8.55;;;4.95;;
9852;SDS011;4965;43.238;27.864;2022-11-15T11:28:23;9.25;;;4.88;;
9852;SDS011;4965;43.238;27.864;2022-11-15T11:31:00;20.17;;;5.72;;
9852;SDS011;4965;43.238;27.864;2022-11-15T11:33:37;5.07;;;4.28;;
9852;SDS011;4965;43.238;27.864;2022-11-15T11:36:14;4.90;;;4.07;;
9852;SDS011;4965;43.238;27.864;2022-11-15T11:38:53;7.82;;;3.58;;
9852;SDS011;4965;43.238;27.864;2022-11-15T11:41:46;7.40;;;4.20;;
9852;SDS011;4965;43.238;27.864;2022-11-15T11:44:26;5.88;;;4.10;;
9852;SDS011;4965;43.238;27.864;2022-11-15T11:47:00;5.13;;;4.18;;
9852;SDS011;4965;43.238;27.864;2022-11-15T11:49:31;8.00;;;4.13;;
9852;SDS011;4965;43.238;27.864;2022-11-15T11:52:07;5.60;;;3.42;;
9852;SDS011;4965;43.238;27.864;2022-11-15T11:54:45;5.18;;;3.65;;
9852;SDS011;4965;43.238;27.864;2022-11-15T11:57:25;4.25;;;3.38;;
9852;SDS011;4965;43.238;27.864;2022-11-15T12:00:01;4.47;;;3.40;;
9852;SDS011;4965;43.238;27.864;2022-11-15T12:02:33;3.75;;;3.20;;
9852;SDS011;4965;43.238;27.864;2022-11-15T12:05:08;3.65;;;3.35;;
9852;SDS011;4965;43.238;27.864;2022-11-15T12:07:38;4.35;;;3.70;;
9852;SDS011;4965;43.238;27.864;2022-11-15T12:10:14;3.72;;;3.40;;
9852;SDS011;4965;43.238;27.864;2022-11-15T12:12:49;5.72;;;2.95;;
9852;SDS011;4965;43.238;27.864;2022-11-15T12:15:23;5.28;;;3.47;;
9852;SDS011;4965;43.238;27.864;2022-11-15T12:17:52;8.43;;;3.30;;
9852;SDS011;4965;43.238;27.864;2022-11-15T12:20:22;5.63;;;3.55;;
9852;SDS011;4965;43.238;27.864;2022-11-15T12:22:53;3.35;;;2.90;;
9852;SDS011;4965;43.238;27.864;2022-11-15T12:25:25;5.45;;;3.55;;
9852;SDS011;4965;43.238;27.864;2022-11-15T12:27:58;6.60;;;3.92;;
9852;SDS011;4965;43.238;27.864;2022-11-15T12:30:36;7.57;;;4.30;;
9852;SDS011;4965;43.238;27.864;2022-11-15T12:36:03;5.18;;;3.58;;
9852;SDS011;4965;43.238;27.864;2022-11-15T12:38:54;8.93;;;4.50;;
9852;SDS011;4965;43.238;27.864;2022-11-15T12:41:25;7.32;;;3.65;;
9852;SDS011;4965;43.238;27.864;2022-11-15T12:43:53;5.68;;;3.60;;
9852;SDS011;4965;43.238;27.864;2022-11-15T12:46:22;7.47;;;4.25;;
9852;SDS011;4965;43.238;27.864;2022-11-15T12:49:10;8.45;;;4.20;;
9852;SDS011;4965;43.238;27.864;2022-11-15T12:52:07;8.52;;;4.30;;
9852;SDS011;4965;43.238;27.864;2022-11-15T12:57:54;7.00;;;4.40;;
9852;SDS011;4965;43.238;27.864;2022-11-15T13:03:20;8.02;;;4.78;;
9852;SDS011;4965;43.238;27.864;2022-11-15T13:06:03;6.38;;;4.40;;
9852;SDS011;4965;43.238;27.864;2022-11-15T13:17:20;8.63;;;5.15;;
9852;SDS011;4965;43.238;27.864;2022-11-15T13:19:53;8.25;;;5.50;;
9852;SDS011;4965;43.238;27.864;2022-11-15T13:22:25;9.63;;;5.45;;
9852;SDS011;4965;43.238;27.864;2022-11-15T13:25:16;7.43;;;5.30;;
9852;SDS011;4965;43.238;27.864;2022-11-15T13:27:50;11.68;;;5.38;;
9852;SDS011;4965;43.238;27.864;2022-11-15T13:30:22;8.57;;;5.78;;
9852;SDS011;4965;43.238;27.864;2022-11-15T13:32:51;9.93;;;5.88;;
9852;SDS011;4965;43.238;27.864;2022-11-15T13:35:23;11.77;;;6.78;;
9852;SDS011;4965;43.238;27.864;2022-11-15T13:37:52;12.25;;;6.82;;
9852;SDS011;4965;43.238;27.864;2022-11-15T13:40:25;10.82;;;6.68;;
9852;SDS011;4965;43.238;27.864;2022-11-15T13:42:55;11.25;;;6.88;;
9852;SDS011;4965;43.238;27.864;2022-11-15T13:45:25;12.45;;;7.35;;
9852;SDS011;4965;43.238;27.864;2022-11-15T13:47:53;11.00;;;7.18;;
9852;SDS011;4965;43.238;27.864;2022-11-15T13:50:23;11.13;;;6.72;;
9852;SDS011;4965;43.238;27.864;2022-11-15T13:52:53;12.27;;;6.32;;
9852;SDS011;4965;43.238;27.864;2022-11-15T13:55:24;14.02;;;8.13;;
9852;SDS011;4965;43.238;27.864;2022-11-15T13:57:53;16.00;;;9.00;;
9852;SDS011;4965;43.238;27.864;2022-11-15T14:00:29;13.10;;;8.50;;
9852;SDS011;4965;43.238;27.864;2022-11-15T14:03:07;11.60;;;9.05;;
9852;SDS011;4965;43.238;27.864;2022-11-15T14:05:41;12.73;;;9.18;;
9852;SDS011;4965;43.238;27.864;2022-11-15T14:08:13;9.77;;;7.80;;
9852;SDS011;4965;43.238;27.864;2022-11-15T14:11:04;15.00;;;8.48;;
9852;SDS011;4965;43.238;27.864;2022-11-15T14:13:34;13.80;;;7.85;;
9852;SDS011;4965;43.238;27.864;2022-11-15T14:16:16;13.30;;;8.07;;
9852;SDS011;4965;43.238;27.864;2022-11-15T14:18:45;11.80;;;6.85;;
9852;SDS011;4965;43.238;27.864;2022-11-15T14:21:14;10.23;;;7.43;;
9852;SDS011;4965;43.238;27.864;2022-11-15T14:23:41;13.73;;;8.20;;
9852;SDS011;4965;43.238;27.864;2022-11-15T14:26:25;13.68;;;7.75;;
9852;SDS011;4965;43.238;27.864;2022-11-15T14:28:55;11.13;;;6.07;;
9852;SDS011;4965;43.238;27.864;2022-11-15T14:31:23;9.27;;;5.72;;
9852;SDS011;4965;43.238;27.864;2022-11-15T14:33:50;13.25;;;6.60;;
9852;SDS011;4965;43.238;27.864;2022-11-15T14:36:18;7.95;;;6.07;;
9852;SDS011;4965;43.238;27.864;2022-11-15T14:38:46;10.98;;;7.28;;
9852;SDS011;4965;43.238;27.864;2022-11-15T14:41:17;15.52;;;7.35;;
9852;SDS011;4965;43.238;27.864;2022-11-15T14:43:47;10.32;;;7.00;;
9852;SDS011;4965;43.238;27.864;2022-11-15T14:46:14;17.15;;;7.50;;
9852;SDS011;4965;43.238;27.864;2022-11-15T14:48:42;17.17;;;7.25;;
9852;SDS011;4965;43.238;27.864;2022-11-15T14:51:11;20.98;;;7.70;;
9852;SDS011;4965;43.238;27.864;2022-11-15T14:53:40;13.93;;;8.13;;
9852;SDS011;4965;43.238;27.864;2022-11-15T14:56:07;17.48;;;7.43;;
9852;SDS011;4965;43.238;27.864;2022-11-15T14:58:34;14.65;;;8.32;;
9852;SDS011;4965;43.238;27.864;2022-11-15T15:01:03;15.10;;;8.60;;
9852;SDS011;4965;43.238;27.864;2022-11-15T15:03:38;19.35;;;8.90;;
9852;SDS011;4965;43.238;27.864;2022-11-15T15:06:07;17.17;;;8.45;;
9852;SDS011;4965;43.238;27.864;2022-11-15T15:08:34;14.50;;;7.72;;
9852;SDS011;4965;43.238;27.864;2022-11-15T15:11:01;18.75;;;9.50;;
9852;SDS011;4965;43.238;27.864;2022-11-15T15:13:33;16.83;;;8.60;;
9852;SDS011;4965;43.238;27.864;2022-11-15T15:16:00;20.17;;;9.85;;
9852;SDS011;4965;43.238;27.864;2022-11-15T15:18:28;21.60;;;9.80;;
9852;SDS011;4965;43.238;27.864;2022-11-15T15:20:55;23.50;;;11.65;;
9852;SDS011;4965;43.238;27.864;2022-11-15T15:23:26;19.02;;;9.45;;
9852;SDS011;4965;43.238;27.864;2022-11-15T15:25:56;21.67;;;10.25;;
9852;SDS011;4965;43.238;27.864;2022-11-15T15:28:23;17.48;;;9.95;;
9852;SDS011;4965;43.238;27.864;2022-11-15T15:30:51;18.33;;;10.00;;
9852;SDS011;4965;43.238;27.864;2022-11-15T15:33:18;15.88;;;9.77;;
9852;SDS011;4965;43.238;27.864;2022-11-15T15:35:45;18.80;;;9.35;;
9852;SDS011;4965;43.238;27.864;2022-11-15T15:38:12;13.88;;;9.80;;
9852;SDS011;4965;43.238;27.864;2022-11-15T15:40:43;14.52;;;10.07;;
9852;SDS011;4965;43.238;27.864;2022-11-15T15:43:10;14.32;;;9.95;;
9852;SDS011;4965;43.238;27.864;2022-11-15T15:45:42;18.33;;;9.88;;
9852;SDS011;4965;43.238;27.864;2022-11-15T15:48:10;20.08;;;9.32;;
9852;SDS011;4965;43.238;27.864;2022-11-15T15:50:39;15.20;;;8.95;;
9852;SDS011;4965;43.238;27.864;2022-11-15T15:53:08;9.80;;;7.88;;